Terminal Aerodrome Forecast
Issued by NWS Duluth, MN

Home | Current Version | Previous Version | Text Only | Print | Product List | Glossary On
Versions: 1 2 3 4 5 6 7 8 9 10 11 12 13 14 15 16 17 18 19 20 21 22 23 24 25 26 27
000
FTUS43 KDLH 100537
TAFINL
TAF
KINL 100537Z 1006/1106 00000KT P6SM OVC018
     FM101000 VRB03KT P6SM BKN010
     FM101100 VRB03KT P6SM BKN008
     FM101800 31004KT P6SM BKN013
     FM102200 30004KT P6SM BKN022
     FM110400 VRB03KT P6SM OVC008=

USA.gov is the U.S. government's official web portal to all federal, state and local government web resources and services.